Thailine 9 — 9WGP9 — position and weather

sailwx.info

Track history (hours):
 
Tides and Currents Weather Stations Pressure Air Temp Water Temp Dewpoint Dewpoint Depression Visibility Wind Speed Wind Dir Waves Ship Positions

Thailine 9

Last reported at 2015-Apr-21 06:24 UTC. Time now 2015-Apr-21 06:39 UTC.
Position N 35°34' E 140°00'.

Length 113 m; draft 4.9 m.

Type: Cargo ship. MMSI: 533791000.

Date/timePositionNaut miles runAvg speedWind from/ knotsBaromVisibWave heightAir tempDewpointWater temp
2015-Apr-21 06:24N 35°34' E 140°00'0 0.0
2015-Apr-21 05:24N 35°34' E 140°00'0 0.0
2015-Apr-21 04:06N 35°34' E 140°00'0 0.1
2015-Apr-21 03:30N 35°34' E 140°00'0 0.0
2015-Apr-21 02:24N 35°34' E 140°00'0 0.0
2015-Apr-21 01:12N 35°34' E 140°00'0 0.2
2015-Apr-21 00:30N 35°34' E 140°00'0 0.1
2015-Apr-20 23:30N 35°34' E 140°00'0 0.1
2015-Apr-20 22:30N 35°34' E 140°00'0 0.0
2015-Apr-20 21:31N 35°34' E 140°00'0 0.0
2015-Apr-20 20:34N 35°34' E 140°00'0 0.0
2015-Apr-20 19:20N 35°34' E 140°00'0 0.1
2015-Apr-20 18:31N 35°34' E 140°00'0 0.1
2015-Apr-20 17:33N 35°34' E 140°00'0 0.0
2015-Apr-20 16:19N 35°34' E 140°00'0 0.1
2015-Apr-20 15:33N 35°34' E 140°00'0 0.0
2015-Apr-20 14:23N 35°34' E 140°00'0 0.0
2015-Apr-20 13:11N 35°34' E 140°00'0 0.0
2015-Apr-20 12:29N 35°34' E 140°00'0 0.1
2015-Apr-20 11:29N 35°34' E 140°00'3 3.2
2015-Apr-20 10:33N 35°33' E 139°57'1313.5
2015-Apr-20 09:33N 35°23' E 139°46'1312.7
2015-Apr-20 08:33N 35°10' E 139°46'1413.7
2015-Apr-20 07:33N 34°57' E 139°43'12 9.5
2015-Apr-20 06:16N 34°52' E 139°57'810.7
2015-Apr-20 05:33N 34°56' E 140°05'40 7.8
2015-Apr-20 00:27N 35°24' E 140°39'13 4.4
2015-Apr-19 21:24N 35°10' E 140°39'2 2.1
2015-Apr-19 20:33N 35°09' E 140°38'2 1.9
2015-Apr-19 19:26N 35°07' E 140°36'4 1.7
2015-Apr-19 17:07N 35°04' E 140°33'1 1.6
2015-Apr-19 16:21N 35°03' E 140°32'1 1.4
2015-Apr-19 15:31N 35°02' E 140°31'2 1.6
2015-Apr-19 14:17N 35°01' E 140°29'1 1.8
2015-Apr-19 13:30N 35°00' E 140°28'2 1.8
2015-Apr-19 12:33N 34°59' E 140°26'2 1.7
2015-Apr-19 11:08N 34°57' E 140°24'1 1.5
2015-Apr-19 10:25N 34°56' E 140°24'2 1.6
2015-Apr-19 09:27N 34°55' E 140°23'2 1.7
2015-Apr-19 08:31N 34°54' E 140°21'2 1.7
2015-Apr-19 07:33N 34°53' E 140°20'2 1.5
2015-Apr-19 06:34N 34°51' E 140°19'1 1.3
2015-Apr-19 05:31N 34°50' E 140°19'1 1.0
2015-Apr-19 04:34N 34°49' E 140°18'1 1.0
2015-Apr-19 03:33N 34°49' E 140°17'1 1.4
2015-Apr-19 02:34N 34°48' E 140°16'2 1.9
2015-Apr-19 01:33N 34°47' E 140°14'2 1.8
2015-Apr-19 00:31N 34°46' E 140°12'2 1.6
2015-Apr-18 23:07N 34°45' E 140°09'1 1.4
2015-Apr-18 22:33N 34°45' E 140°08'1 1.2
2015-Apr-18 21:33N 34°44' E 140°07'1 0.9
2015-Apr-18 20:31N 34°44' E 140°06'1 0.8
2015-Apr-18 19:34N 34°44' E 140°05'1 0.8
2015-Apr-18 18:31N 34°43' E 140°04'3 0.9
2015-Apr-18 15:33N 34°43' E 140°01'1 0.9
2015-Apr-18 14:19N 34°42' E 139°60'1 1.1
2015-Apr-18 13:26N 34°42' E 139°59'1 1.2
2015-Apr-18 12:24N 34°42' E 139°57'1 1.2
2015-Apr-18 11:34N 34°41' E 139°56'1 1.2
2015-Apr-18 10:33N 34°41' E 139°55'9 1.3
2015-Apr-18 03:24N 34°47' E 139°46'1011.9
2015-Apr-18 02:33N 34°56' E 139°43'1212.2
2015-Apr-18 01:33N 35°08' E 139°45'1211.8
2015-Apr-18 00:33N 35°20' E 139°42'1211.7
2015-Apr-17 23:33N 35°29' E 139°51'10 9.4
2015-Apr-17 22:32N 35°35' E 140°01'0 0.0
2015-Apr-17 21:25N 35°35' E 140°01'0 0.0
2015-Apr-17 20:31N 35°35' E 140°01'0 0.0
2015-Apr-17 19:31N 35°35' E 140°01'0 0.0
2015-Apr-17 18:31N 35°35' E 140°01'0 0.0
2015-Apr-17 17:25N 35°35' E 140°01'0 0.0
2015-Apr-17 16:31N 35°35' E 140°01'0 0.0
2015-Apr-17 15:31N 35°35' E 140°01'0 0.0
2015-Apr-17 14:31N 35°35' E 140°01'0 0.0
2015-Apr-17 13:31N 35°35' E 140°01'0 0.0
2015-Apr-17 12:31N 35°35' E 140°01'0 0.0
2015-Apr-17 11:31N 35°35' E 140°01'0 0.0
2015-Apr-17 10:26N 35°35' E 140°01'0 0.0
2015-Apr-17 09:28N 35°35' E 140°01'0 0.1
2015-Apr-17 08:33N 35°35' E 140°01'0 0.1
2015-Apr-17 07:33N 35°35' E 140°01'0 0.0
2015-Apr-17 06:26N 35°35' E 140°01'0 0.1
2015-Apr-17 05:34N 35°35' E 140°01'0 0.0
2015-Apr-17 04:28N 35°35' E 140°01'0 0.1
2015-Apr-17 03:31N 35°35' E 140°01'0 0.0
2015-Apr-17 02:30N 35°35' E 140°01'0 0.0
2015-Apr-17 01:32N 35°35' E 140°01'0 0.0
2015-Apr-17 00:20N 35°35' E 140°01'0 0.0
2015-Apr-16 23:20N 35°35' E 140°01'0 0.0
2015-Apr-16 22:20N 35°35' E 140°01'0 0.0
2015-Apr-16 21:30N 35°35' E 140°01'0 0.0
2015-Apr-16 20:23N 35°35' E 140°01'0 0.0
2015-Apr-16 19:11N 35°35' E 140°01'0 0.1
2015-Apr-16 18:29N 35°35' E 140°01'0 0.0
2015-Apr-16 17:29N 35°35' E 140°01'0 0.0
2015-Apr-16 16:11N 35°35' E 140°01'0 0.0
2015-Apr-16 15:29N 35°35' E 140°01'0 0.0
2015-Apr-16 14:29N 35°35' E 140°01'0 0.0
2015-Apr-16 13:17N 35°35' E 140°01'0 0.0
2015-Apr-16 12:29N 35°35' E 140°01'0 0.0
2015-Apr-16 11:29N 35°35' E 140°01'0 0.0
2015-Apr-16 10:29N 35°35' E 140°01'0 0.1
2015-Apr-16 09:29N 35°35' E 140°01'3 3.2
2015-Apr-16 08:33N 35°33' E 140°04'2 1.5
2015-Apr-16 07:29N 35°33' E 140°06'0 0.0
2015-Apr-16 06:23N 35°33' E 140°06'0 0.0
2015-Apr-16 05:29N 35°33' E 140°06'0 0.0
2015-Apr-16 04:23N 35°33' E 140°06'0 0.0
2015-Apr-16 03:23N 35°33' E 140°06'0 0.0
2015-Apr-16 02:17N 35°33' E 140°06'0 0.0
2015-Apr-16 01:11N 35°33' E 140°06'0 0.0
2015-Apr-16 00:05N 35°33' E 140°06'0 0.0
2015-Apr-15 23:23N 35°33' E 140°06'0 0.0
2015-Apr-15 22:29N 35°33' E 140°06'0 0.0
2015-Apr-15 21:05N 35°33' E 140°06'0 0.0
2015-Apr-15 20:17N 35°33' E 140°06'0 0.0
2015-Apr-15 19:29N 35°33' E 140°06'0 0.0
2015-Apr-15 18:29N 35°33' E 140°06'0 0.0
2015-Apr-15 17:23N 35°33' E 140°06'0 0.0
2015-Apr-15 16:29N 35°33' E 140°06'0 0.0
2015-Apr-15 15:17N 35°33' E 140°06'0 0.0
2015-Apr-15 13:29N 35°33' E 140°06'0 0.0
2015-Apr-15 11:29N 35°33' E 140°06'0 0.0
2015-Apr-15 10:29N 35°33' E 140°06'0 0.0
2015-Apr-15 09:17N 35°33' E 140°06'0 0.0
2015-Apr-15 08:29N 35°33' E 140°06'0 0.0
2015-Apr-15 07:29N 35°33' E 140°06'0 0.0
2015-Apr-15 06:29N 35°33' E 140°06'0 0.0
2015-Apr-15 05:29N 35°33' E 140°06'0 0.0
2015-Apr-15 04:23N 35°33' E 140°06'0 0.0
2015-Apr-15 03:23N 35°33' E 140°06'0 0.0
2015-Apr-15 02:29N 35°33' E 140°06'0 0.0
2015-Apr-15 01:17N 35°33' E 140°06'0 0.0
2015-Apr-15 00:29N 35°33' E 140°06'0 0.0
2015-Apr-14 23:23N 35°33' E 140°06'0 0.1
2015-Apr-14 22:33N 35°33' E 140°06'5 4.8
2015-Apr-14 21:31N 35°34' E 140°00'0 0.1
2015-Apr-14 20:32N 35°34' E 140°00'0 0.0
2015-Apr-14 19:29N 35°34' E 140°00'0 0.1
2015-Apr-14 18:28N 35°34' E 140°00'0 0.1
2015-Apr-14 17:22N 35°34' E 140°00'0 0.0
2015-Apr-14 16:04N 35°34' E 140°00'0 0.1
2015-Apr-14 15:22N 35°34' E 140°00'0 0.0
2015-Apr-14 14:10N 35°34' E 140°00'0 0.1
2015-Apr-14 13:31N 35°34' E 140°00'0 0.0
2015-Apr-14 12:10N 35°34' E 140°00'0 0.1
2015-Apr-14 11:28N 35°34' E 140°00'0 0.0
2015-Apr-14 10:28N 35°34' E 140°00'0 0.0
2015-Apr-14 09:28N 35°34' E 140°00'0 0.0
2015-Apr-14 08:16N 35°34' E 140°00'0 0.1
2015-Apr-14 07:28N 35°34' E 140°00'0 0.0
2015-Apr-14 06:22N 35°34' E 140°00'0 0.0
2015-Apr-14 05:28N 35°34' E 140°00'0 0.0
2015-Apr-14 04:10N 35°34' E 140°00'0 0.0
2015-Apr-14 03:16N 35°34' E 140°00'0 0.1
2015-Apr-14 02:28N 35°34' E 140°00'0 0.0
2015-Apr-14 01:28N 35°34' E 140°00'0 0.0
2015-Apr-14 00:22N 35°34' E 140°00'0 0.0
2015-Apr-13 23:16N 35°34' E 140°00'0 0.0
2015-Apr-13 22:22N 35°34' E 140°00'0 0.0
2015-Apr-13 21:28N 35°34' E 140°00'0 0.0
2015-Apr-13 20:22N 35°34' E 140°00'0 0.0
2015-Apr-13 19:28N 35°34' E 140°00'0 0.0
2015-Apr-13 18:28N 35°34' E 140°00'0 0.0
2015-Apr-13 17:28N 35°34' E 140°00'0 0.0
2015-Apr-13 16:10N 35°34' E 140°00'0 0.1
2015-Apr-13 15:28N 35°34' E 140°00'0 0.0
2015-Apr-13 14:22N 35°34' E 140°00'0 0.0
2015-Apr-13 13:28N 35°34' E 140°00'0 0.0
2015-Apr-13 12:04N 35°34' E 140°00'0 0.0
2015-Apr-13 11:28N 35°34' E 140°00'0 0.0
2015-Apr-13 10:22N 35°34' E 140°00'0 0.0
2015-Apr-13 09:16N 35°34' E 140°00'0 0.1
2015-Apr-13 08:28N 35°34' E 140°00'0 0.0
2015-Apr-13 07:28N 35°34' E 140°00'0 0.0
2015-Apr-13 06:28N 35°34' E 140°00'0 0.0
2015-Apr-13 05:22N 35°34' E 140°00'0 0.0
2015-Apr-13 04:19N 35°34' E 140°00'0 0.1
2015-Apr-13 03:22N 35°34' E 140°00'0 0.1
2015-Apr-13 02:28N 35°34' E 140°00'0 0.0
2015-Apr-13 01:28N 35°34' E 140°00'0 0.0
2015-Apr-13 00:10N 35°34' E 140°00'0 0.0
2015-Apr-12 23:28N 35°34' E 140°00'0 0.0
2015-Apr-12 22:28N 35°34' E 140°00'0 0.0
2015-Apr-12 21:10N 35°34' E 140°00'0 0.0
2015-Apr-12 20:22N 35°34' E 140°00'0 0.1
2015-Apr-12 19:28N 35°34' E 140°00'0 0.0
2015-Apr-12 18:22N 35°34' E 140°00'0 0.0
2015-Apr-12 17:28N 35°34' E 140°00'0 0.0
2015-Apr-12 16:28N 35°34' E 140°00'0 0.0
2015-Apr-12 15:22N 35°34' E 140°00'0 0.1
2015-Apr-12 14:25N 35°34' E 140°00'0 0.0
2015-Apr-12 13:31N 35°34' E 140°00'0 0.0
2015-Apr-12 12:22N 35°34' E 140°00'0 0.0
2015-Apr-12 11:04N 35°34' E 140°00'0 0.1
2015-Apr-12 10:16N 35°34' E 140°00'0 0.0
2015-Apr-12 09:16N 35°34' E 140°00'0 0.0
2015-Apr-12 08:16N 35°34' E 140°00'0 0.0
2015-Apr-12 07:04N 35°34' E 140°00'0 0.0
2015-Apr-12 06:22N 35°34' E 140°00'0 0.1
2015-Apr-12 05:28N 35°34' E 140°00'0 0.0
2015-Apr-12 03:28N 35°34' E 140°00'0 0.0
2015-Apr-12 02:28N 35°34' E 140°00'0 0.0
2015-Apr-12 01:31N 35°34' E 140°00'0 0.0
2015-Apr-12 00:28N 35°34' E 140°00'0 0.0
2015-Apr-11 23:16N 35°34' E 140°00'0 0.0
2015-Apr-11 22:28N 35°34' E 140°00'0 0.0
2015-Apr-11 21:31N 35°34' E 140°00'0 0.0
2015-Apr-11 20:28N 35°34' E 140°00'0 0.0
2015-Apr-11 19:10N 35°34' E 140°00'0 0.0
2015-Apr-11 18:22N 35°34' E 140°00'0 0.0
2015-Apr-11 17:28N 35°34' E 140°00'0 0.0
2015-Apr-11 16:16N 35°34' E 140°00'0 0.0
2015-Apr-11 15:28N 35°34' E 140°00'0 0.0
2015-Apr-11 14:16N 35°34' E 140°00'0 0.0
2015-Apr-11 13:28N 35°34' E 140°00'0 0.0
2015-Apr-11 12:22N 35°34' E 140°00'0 0.0
2015-Apr-11 11:28N 35°34' E 140°00'0 0.0
2015-Apr-11 10:28N 35°34' E 140°00'0 0.0
2015-Apr-11 09:16N 35°34' E 140°00'0 0.1
2015-Apr-11 08:22N 35°34' E 140°00'0 0.1
2015-Apr-11 07:28N 35°34' E 140°00'  
Track history (hours):
 
Tides and Currents Weather Stations Pressure Air Temp Water Temp Dewpoint Dewpoint Depression Visibility Wind Speed Wind Dir Waves Ship Positions

Thailine 9

Last reported at 2015-Apr-21 06:24 UTC. Time now 2015-Apr-21 06:39 UTC.
Position N 35°34' E 140°00'.

Length 113 m; draft 4.9 m.

Type: Cargo ship. MMSI: 533791000.

Date/timePositionNaut miles runAvg speedWind from/ knotsBaromVisibWave heightAir tempDewpointWater temp
2015-Apr-21 06:24N 35°34' E 140°00'0 0.0
2015-Apr-21 05:24N 35°34' E 140°00'0 0.0
2015-Apr-21 04:06N 35°34' E 140°00'0 0.1
2015-Apr-21 03:30N 35°34' E 140°00'0 0.0
2015-Apr-21 02:24N 35°34' E 140°00'0 0.0
2015-Apr-21 01:12N 35°34' E 140°00'0 0.2
2015-Apr-21 00:30N 35°34' E 140°00'0 0.1
2015-Apr-20 23:30N 35°34' E 140°00'0 0.1
2015-Apr-20 22:30N 35°34' E 140°00'0 0.0
2015-Apr-20 21:31N 35°34' E 140°00'0 0.0
2015-Apr-20 20:34N 35°34' E 140°00'0 0.0
2015-Apr-20 19:20N 35°34' E 140°00'0 0.1
2015-Apr-20 18:31N 35°34' E 140°00'0 0.1
2015-Apr-20 17:33N 35°34' E 140°00'0 0.0
2015-Apr-20 16:19N 35°34' E 140°00'0 0.1
2015-Apr-20 15:33N 35°34' E 140°00'0 0.0
2015-Apr-20 14:23N 35°34' E 140°00'0 0.0
2015-Apr-20 13:11N 35°34' E 140°00'0 0.0
2015-Apr-20 12:29N 35°34' E 140°00'0 0.1
2015-Apr-20 11:29N 35°34' E 140°00'3 3.2
2015-Apr-20 10:33N 35°33' E 139°57'1313.5
2015-Apr-20 09:33N 35°23' E 139°46'1312.7
2015-Apr-20 08:33N 35°10' E 139°46'1413.7
2015-Apr-20 07:33N 34°57' E 139°43'12 9.5
2015-Apr-20 06:16N 34°52' E 139°57'810.7
2015-Apr-20 05:33N 34°56' E 140°05'40 7.8
2015-Apr-20 00:27N 35°24' E 140°39'13 4.4
2015-Apr-19 21:24N 35°10' E 140°39'2 2.1
2015-Apr-19 20:33N 35°09' E 140°38'2 1.9
2015-Apr-19 19:26N 35°07' E 140°36'4 1.7
2015-Apr-19 17:07N 35°04' E 140°33'1 1.6
2015-Apr-19 16:21N 35°03' E 140°32'1 1.4
2015-Apr-19 15:31N 35°02' E 140°31'2 1.6
2015-Apr-19 14:17N 35°01' E 140°29'1 1.8
2015-Apr-19 13:30N 35°00' E 140°28'2 1.8
2015-Apr-19 12:33N 34°59' E 140°26'2 1.7
2015-Apr-19 11:08N 34°57' E 140°24'1 1.5
2015-Apr-19 10:25N 34°56' E 140°24'2 1.6
2015-Apr-19 09:27N 34°55' E 140°23'2 1.7
2015-Apr-19 08:31N 34°54' E 140°21'2 1.7
2015-Apr-19 07:33N 34°53' E 140°20'2 1.5
2015-Apr-19 06:34N 34°51' E 140°19'1 1.3
2015-Apr-19 05:31N 34°50' E 140°19'1 1.0
2015-Apr-19 04:34N 34°49' E 140°18'1 1.0
2015-Apr-19 03:33N 34°49' E 140°17'1 1.4
2015-Apr-19 02:34N 34°48' E 140°16'2 1.9
2015-Apr-19 01:33N 34°47' E 140°14'2 1.8
2015-Apr-19 00:31N 34°46' E 140°12'2 1.6
2015-Apr-18 23:07N 34°45' E 140°09'1 1.4
2015-Apr-18 22:33N 34°45' E 140°08'1 1.2
2015-Apr-18 21:33N 34°44' E 140°07'1 0.9
2015-Apr-18 20:31N 34°44' E 140°06'1 0.8
2015-Apr-18 19:34N 34°44' E 140°05'1 0.8
2015-Apr-18 18:31N 34°43' E 140°04'3 0.9
2015-Apr-18 15:33N 34°43' E 140°01'1 0.9
2015-Apr-18 14:19N 34°42' E 139°60'1 1.1
2015-Apr-18 13:26N 34°42' E 139°59'1 1.2
2015-Apr-18 12:24N 34°42' E 139°57'1 1.2
2015-Apr-18 11:34N 34°41' E 139°56'1 1.2
2015-Apr-18 10:33N 34°41' E 139°55'9 1.3
2015-Apr-18 03:24N 34°47' E 139°46'1011.9
2015-Apr-18 02:33N 34°56' E 139°43'1212.2
2015-Apr-18 01:33N 35°08' E 139°45'1211.8
2015-Apr-18 00:33N 35°20' E 139°42'1211.7
2015-Apr-17 23:33N 35°29' E 139°51'10 9.4
2015-Apr-17 22:32N 35°35' E 140°01'0 0.0
2015-Apr-17 21:25N 35°35' E 140°01'0 0.0
2015-Apr-17 20:31N 35°35' E 140°01'0 0.0
2015-Apr-17 19:31N 35°35' E 140°01'0 0.0
2015-Apr-17 18:31N 35°35' E 140°01'0 0.0
2015-Apr-17 17:25N 35°35' E 140°01'0 0.0
2015-Apr-17 16:31N 35°35' E 140°01'0 0.0
2015-Apr-17 15:31N 35°35' E 140°01'0 0.0
2015-Apr-17 14:31N 35°35' E 140°01'0 0.0
2015-Apr-17 13:31N 35°35' E 140°01'0 0.0
2015-Apr-17 12:31N 35°35' E 140°01'0 0.0
2015-Apr-17 11:31N 35°35' E 140°01'0 0.0
2015-Apr-17 10:26N 35°35' E 140°01'0 0.0
2015-Apr-17 09:28N 35°35' E 140°01'0 0.1
2015-Apr-17 08:33N 35°35' E 140°01'0 0.1
2015-Apr-17 07:33N 35°35' E 140°01'0 0.0
2015-Apr-17 06:26N 35°35' E 140°01'0 0.1
2015-Apr-17 05:34N 35°35' E 140°01'0 0.0
2015-Apr-17 04:28N 35°35' E 140°01'0 0.1
2015-Apr-17 03:31N 35°35' E 140°01'0 0.0
2015-Apr-17 02:30N 35°35' E 140°01'0 0.0
2015-Apr-17 01:32N 35°35' E 140°01'0 0.0
2015-Apr-17 00:20N 35°35' E 140°01'0 0.0
2015-Apr-16 23:20N 35°35' E 140°01'0 0.0
2015-Apr-16 22:20N 35°35' E 140°01'0 0.0
2015-Apr-16 21:30N 35°35' E 140°01'0 0.0
2015-Apr-16 20:23N 35°35' E 140°01'0 0.0
2015-Apr-16 19:11N 35°35' E 140°01'0 0.1
2015-Apr-16 18:29N 35°35' E 140°01'0 0.0
2015-Apr-16 17:29N 35°35' E 140°01'0 0.0
2015-Apr-16 16:11N 35°35' E 140°01'0 0.0
2015-Apr-16 15:29N 35°35' E 140°01'0 0.0
2015-Apr-16 14:29N 35°35' E 140°01'0 0.0
2015-Apr-16 13:17N 35°35' E 140°01'0 0.0
2015-Apr-16 12:29N 35°35' E 140°01'0 0.0
2015-Apr-16 11:29N 35°35' E 140°01'0 0.0
2015-Apr-16 10:29N 35°35' E 140°01'0 0.1
2015-Apr-16 09:29N 35°35' E 140°01'3 3.2
2015-Apr-16 08:33N 35°33' E 140°04'2 1.5
2015-Apr-16 07:29N 35°33' E 140°06'0 0.0
2015-Apr-16 06:23N 35°33' E 140°06'0 0.0
2015-Apr-16 05:29N 35°33' E 140°06'0 0.0
2015-Apr-16 04:23N 35°33' E 140°06'0 0.0
2015-Apr-16 03:23N 35°33' E 140°06'0 0.0
2015-Apr-16 02:17N 35°33' E 140°06'0 0.0
2015-Apr-16 01:11N 35°33' E 140°06'0 0.0
2015-Apr-16 00:05N 35°33' E 140°06'0 0.0
2015-Apr-15 23:23N 35°33' E 140°06'0 0.0
2015-Apr-15 22:29N 35°33' E 140°06'0 0.0
2015-Apr-15 21:05N 35°33' E 140°06'0 0.0
2015-Apr-15 20:17N 35°33' E 140°06'0 0.0
2015-Apr-15 19:29N 35°33' E 140°06'0 0.0
2015-Apr-15 18:29N 35°33' E 140°06'0 0.0
2015-Apr-15 17:23N 35°33' E 140°06'0 0.0
2015-Apr-15 16:29N 35°33' E 140°06'0 0.0
2015-Apr-15 15:17N 35°33' E 140°06'0 0.0
2015-Apr-15 13:29N 35°33' E 140°06'0 0.0
2015-Apr-15 11:29N 35°33' E 140°06'0 0.0
2015-Apr-15 10:29N 35°33' E 140°06'0 0.0
2015-Apr-15 09:17N 35°33' E 140°06'0 0.0
2015-Apr-15 08:29N 35°33' E 140°06'0 0.0
2015-Apr-15 07:29N 35°33' E 140°06'0 0.0
2015-Apr-15 06:29N 35°33' E 140°06'0 0.0
2015-Apr-15 05:29N 35°33' E 140°06'0 0.0
2015-Apr-15 04:23N 35°33' E 140°06'0 0.0
2015-Apr-15 03:23N 35°33' E 140°06'0 0.0
2015-Apr-15 02:29N 35°33' E 140°06'0 0.0
2015-Apr-15 01:17N 35°33' E 140°06'0 0.0
2015-Apr-15 00:29N 35°33' E 140°06'0 0.0
2015-Apr-14 23:23N 35°33' E 140°06'0 0.1
2015-Apr-14 22:33N 35°33' E 140°06'5 4.8
2015-Apr-14 21:31N 35°34' E 140°00'0 0.1
2015-Apr-14 20:32N 35°34' E 140°00'0 0.0
2015-Apr-14 19:29N 35°34' E 140°00'0 0.1
2015-Apr-14 18:28N 35°34' E 140°00'0 0.1
2015-Apr-14 17:22N 35°34' E 140°00'0 0.0
2015-Apr-14 16:04N 35°34' E 140°00'0 0.1
2015-Apr-14 15:22N 35°34' E 140°00'0 0.0
2015-Apr-14 14:10N 35°34' E 140°00'0 0.1
2015-Apr-14 13:31N 35°34' E 140°00'0 0.0
2015-Apr-14 12:10N 35°34' E 140°00'0 0.1
2015-Apr-14 11:28N 35°34' E 140°00'0 0.0
2015-Apr-14 10:28N 35°34' E 140°00'0 0.0
2015-Apr-14 09:28N 35°34' E 140°00'0 0.0
2015-Apr-14 08:16N 35°34' E 140°00'0 0.1
2015-Apr-14 07:28N 35°34' E 140°00'0 0.0
2015-Apr-14 06:22N 35°34' E 140°00'0 0.0
2015-Apr-14 05:28N 35°34' E 140°00'0 0.0
2015-Apr-14 04:10N 35°34' E 140°00'0 0.0
2015-Apr-14 03:16N 35°34' E 140°00'0 0.1
2015-Apr-14 02:28N 35°34' E 140°00'0 0.0
2015-Apr-14 01:28N 35°34' E 140°00'0 0.0
2015-Apr-14 00:22N 35°34' E 140°00'0 0.0
2015-Apr-13 23:16N 35°34' E 140°00'0 0.0
2015-Apr-13 22:22N 35°34' E 140°00'0 0.0
2015-Apr-13 21:28N 35°34' E 140°00'0 0.0
2015-Apr-13 20:22N 35°34' E 140°00'0 0.0
2015-Apr-13 19:28N 35°34' E 140°00'0 0.0
2015-Apr-13 18:28N 35°34' E 140°00'0 0.0
2015-Apr-13 17:28N 35°34' E 140°00'0 0.0
2015-Apr-13 16:10N 35°34' E 140°00'0 0.1
2015-Apr-13 15:28N 35°34' E 140°00'0 0.0
2015-Apr-13 14:22N 35°34' E 140°00'0 0.0
2015-Apr-13 13:28N 35°34' E 140°00'0 0.0
2015-Apr-13 12:04N 35°34' E 140°00'0 0.0
2015-Apr-13 11:28N 35°34' E 140°00'0 0.0
2015-Apr-13 10:22N 35°34' E 140°00'0 0.0
2015-Apr-13 09:16N 35°34' E 140°00'0 0.1
2015-Apr-13 08:28N 35°34' E 140°00'0 0.0
2015-Apr-13 07:28N 35°34' E 140°00'0 0.0
2015-Apr-13 06:28N 35°34' E 140°00'0 0.0
2015-Apr-13 05:22N 35°34' E 140°00'0 0.0
2015-Apr-13 04:19N 35°34' E 140°00'0 0.1
2015-Apr-13 03:22N 35°34' E 140°00'0 0.1
2015-Apr-13 02:28N 35°34' E 140°00'0 0.0
2015-Apr-13 01:28N 35°34' E 140°00'0 0.0
2015-Apr-13 00:10N 35°34' E 140°00'0 0.0
2015-Apr-12 23:28N 35°34' E 140°00'0 0.0
2015-Apr-12 22:28N 35°34' E 140°00'0 0.0
2015-Apr-12 21:10N 35°34' E 140°00'0 0.0
2015-Apr-12 20:22N 35°34' E 140°00'0 0.1
2015-Apr-12 19:28N 35°34' E 140°00'0 0.0
2015-Apr-12 18:22N 35°34' E 140°00'0 0.0
2015-Apr-12 17:28N 35°34' E 140°00'0 0.0
2015-Apr-12 16:28N 35°34' E 140°00'0 0.0
2015-Apr-12 15:22N 35°34' E 140°00'0 0.1
2015-Apr-12 14:25N 35°34' E 140°00'0 0.0
2015-Apr-12 13:31N 35°34' E 140°00'0 0.0
2015-Apr-12 12:22N 35°34' E 140°00'0 0.0
2015-Apr-12 11:04N 35°34' E 140°00'0 0.1
2015-Apr-12 10:16N 35°34' E 140°00'0 0.0
2015-Apr-12 09:16N 35°34' E 140°00'0 0.0
2015-Apr-12 08:16N 35°34' E 140°00'0 0.0
2015-Apr-12 07:04N 35°34' E 140°00'0 0.0
2015-Apr-12 06:22N 35°34' E 140°00'0 0.1
2015-Apr-12 05:28N 35°34' E 140°00'0 0.0
2015-Apr-12 03:28N 35°34' E 140°00'0 0.0
2015-Apr-12 02:28N 35°34' E 140°00'0 0.0
2015-Apr-12 01:31N 35°34' E 140°00'0 0.0
2015-Apr-12 00:28N 35°34' E 140°00'0 0.0
2015-Apr-11 23:16N 35°34' E 140°00'0 0.0
2015-Apr-11 22:28N 35°34' E 140°00'0 0.0
2015-Apr-11 21:31N 35°34' E 140°00'0 0.0
2015-Apr-11 20:28N 35°34' E 140°00'0 0.0
2015-Apr-11 19:10N 35°34' E 140°00'0 0.0
2015-Apr-11 18:22N 35°34' E 140°00'0 0.0
2015-Apr-11 17:28N 35°34' E 140°00'0 0.0
2015-Apr-11 16:16N 35°34' E 140°00'0 0.0
2015-Apr-11 15:28N 35°34' E 140°00'0 0.0
2015-Apr-11 14:16N 35°34' E 140°00'0 0.0
2015-Apr-11 13:28N 35°34' E 140°00'0 0.0
2015-Apr-11 12:22N 35°34' E 140°00'0 0.0
2015-Apr-11 11:28N 35°34' E 140°00'0 0.0
2015-Apr-11 10:28N 35°34' E 140°00'0 0.0
2015-Apr-11 09:16N 35°34' E 140°00'0 0.1
2015-Apr-11 08:22N 35°34' E 140°00'0 0.1
2015-Apr-11 07:28N 35°34' E 140°00'  

Dump ship's entire track history